createdAt,value
2022-11-15T00:00:26.489Z,96433.59
2022-11-15T00:03:15.712Z,96430.31
2022-11-15T00:06:04.375Z,96419.28
2022-11-15T00:08:51.614Z,96421.16
2022-11-15T00:11:39.467Z,96413.59
2022-11-15T00:14:25.972Z,96413.88
2022-11-15T00:17:12.554Z,96416.50
2022-11-15T00:19:59.053Z,96411.47
2022-11-15T00:22:45.703Z,96409.06
2022-11-15T00:25:32.450Z,96416.41
2022-11-15T00:28:20.208Z,96408.63
2022-11-15T00:31:11.163Z,96405.25
2022-11-15T00:33:57.423Z,96405.34
2022-11-15T00:36:44.128Z,96394.22
2022-11-15T00:39:30.600Z,96404.06
2022-11-15T00:42:17.148Z,96393.66
2022-11-15T00:45:05.611Z,96393.75
2022-11-15T00:47:52.387Z,96394.78
2022-11-15T00:50:39.030Z,96392.25
2022-11-15T00:53:25.743Z,96394.34
2022-11-15T00:56:12.236Z,96389.00
2022-11-15T00:58:58.978Z,96388.47
2022-11-15T01:01:46.956Z,96385.41
2022-11-15T01:04:33.225Z,96381.00
2022-11-15T01:07:19.898Z,96380.34
2022-11-15T01:10:07.672Z,96377.91
2022-11-15T01:12:54.300Z,96380.00
2022-11-15T01:15:42.303Z,96379.25
2022-11-15T01:18:29.960Z,96380.00
2022-11-15T01:21:19.678Z,96368.84
2022-11-15T01:24:06.945Z,96369.72
2022-11-15T01:26:53.401Z,96369.28
2022-11-15T01:29:39.736Z,96365.91
2022-11-15T01:32:26.295Z,96358.56
2022-11-15T01:35:14.162Z,96362.44
2022-11-15T01:38:00.939Z,96363.19
2022-11-15T01:40:47.590Z,96358.66
2022-11-15T01:43:36.938Z,96356.91
2022-11-15T01:46:31.754Z,96344.53
2022-11-15T01:49:21.402Z,96350.41
2022-11-15T01:52:13.345Z,96354.31
2022-11-15T01:55:06.775Z,96353.56
2022-11-15T01:57:56.566Z,96353.47
2022-11-15T02:00:42.955Z,96343.00
2022-11-15T02:03:37.565Z,96346.34
2022-11-15T02:06:24.654Z,96341.19
2022-11-15T02:09:13.411Z,96339.72
2022-11-15T02:12:01.389Z,96332.50
2022-11-15T02:14:54.189Z,96331.00
2022-11-15T02:17:54.754Z,96333.41
2022-11-15T02:21:12.544Z,96325.06
2022-11-15T02:24:24.473Z,96322.03
2022-11-15T02:27:40.155Z,96318.34
2022-11-15T02:30:35.807Z,96317.34
2022-11-15T02:33:34.791Z,96315.41
2022-11-15T02:36:32.746Z,96309.47
2022-11-15T02:39:27.634Z,96310.38
2022-11-15T02:42:37.950Z,96307.56
2022-11-15T02:45:31.275Z,96298.00
2022-11-15T02:48:18.882Z,96307.75
2022-11-15T02:51:06.130Z,96293.06
2022-11-15T02:53:52.627Z,96292.56
2022-11-15T02:56:39.304Z,96291.41
2022-11-15T02:59:46.206Z,96287.00
2022-11-15T03:02:44.606Z,96283.34
2022-11-15T03:05:37.364Z,96283.44
2022-11-15T03:08:31.316Z,96278.50
2022-11-15T03:11:19.638Z,96276.81
2022-11-15T03:14:19.223Z,96277.28
2022-11-15T03:17:15.982Z,96268.25
2022-11-15T03:20:06.964Z,96264.34
2022-11-15T03:22:55.317Z,96269.41
2022-11-15T03:25:47.769Z,96270.44
2022-11-15T03:28:38.391Z,96257.97
2022-11-15T03:31:49.747Z,96252.06
2022-11-15T03:34:43.423Z,96256.47
2022-11-15T03:37:37.052Z,96260.81
2022-11-15T03:40:29.826Z,96268.69
2022-11-15T03:43:24.927Z,96250.63
2022-11-15T03:46:17.274Z,96251.84
2022-11-15T03:49:09.617Z,96252.41
2022-11-15T03:51:59.304Z,96249.97
2022-11-15T03:54:52.908Z,96254.28
2022-11-15T03:57:39.331Z,96250.16
2022-11-15T04:00:26.188Z,96250.09
2022-11-15T04:03:12.617Z,96254.66
2022-11-15T04:05:59.679Z,96243.34
2022-11-15T04:08:46.334Z,96242.09
2022-11-15T04:11:34.270Z,96240.00
2022-11-15T04:14:20.749Z,96237.19
2022-11-15T04:17:07.351Z,96244.09
2022-11-15T04:20:11.896Z,96245.78
2022-11-15T04:23:17.469Z,96243.69
2022-11-15T04:26:06.544Z,96237.38
2022-11-15T04:29:12.020Z,96235.06
2022-11-15T04:31:58.985Z,96238.44
2022-11-15T04:34:45.375Z,96230.44
2022-11-15T04:37:32.006Z,96232.97
2022-11-15T04:40:18.610Z,96230.56
2022-11-15T04:43:05.494Z,96223.44
2022-11-15T04:45:53.071Z,96224.88
2022-11-15T04:48:39.792Z,96217.13
2022-11-15T04:51:26.421Z,96224.78
2022-11-15T04:54:13.305Z,96225.09
2022-11-15T04:57:00.231Z,96219.75
2022-11-15T04:59:46.640Z,96222.81
2022-11-15T05:02:48.882Z,96210.28
2022-11-15T05:05:35.159Z,96201.50
2022-11-15T05:08:22.065Z,96207.88
2022-11-15T05:11:08.665Z,96199.47
2022-11-15T05:13:55.429Z,96197.69
2022-11-15T05:16:42.100Z,96201.22
2022-11-15T05:19:29.712Z,96204.19
2022-11-15T05:22:16.162Z,96199.47
2022-11-15T05:25:03.209Z,96197.41
2022-11-15T05:27:50.028Z,96201.69
2022-11-15T05:30:36.428Z,96207.66
2022-11-15T05:33:23.210Z,96200.84
2022-11-15T05:36:17.438Z,96194.88
2022-11-15T05:39:05.353Z,96192.25
2022-11-15T05:41:56.443Z,96192.38
2022-11-15T05:44:46.351Z,96189.28
2022-11-15T05:47:33.144Z,96182.16
2022-11-15T05:50:20.916Z,96179.84
2022-11-15T05:53:09.418Z,96180.25
2022-11-15T05:55:55.831Z,96177.72
2022-11-15T05:58:42.341Z,96177.34
2022-11-15T06:01:29.415Z,96178.16
2022-11-15T06:04:15.577Z,96183.59
2022-11-15T06:07:02.200Z,96183.91
2022-11-15T06:09:50.356Z,96180.69
2022-11-15T06:12:36.951Z,96182.78
2022-11-15T06:15:23.398Z,96182.13
2022-11-15T06:18:10.351Z,96185.59
2022-11-15T06:21:00.571Z,96187.19
2022-11-15T06:23:46.895Z,96185.81
2022-11-15T06:26:34.804Z,96188.22
2022-11-15T06:29:21.392Z,96184.75
2022-11-15T06:32:08.148Z,96193.88
2022-11-15T06:34:54.529Z,96189.69
2022-11-15T06:37:41.600Z,96188.00
2022-11-15T06:40:27.842Z,96191.16
2022-11-15T06:43:16.230Z,96194.41
2022-11-15T06:46:03.703Z,96196.94
2022-11-15T06:48:52.662Z,96195.88
2022-11-15T06:51:39.300Z,96208.16
2022-11-15T06:54:26.042Z,96205.34
2022-11-15T06:57:12.483Z,96201.34
2022-11-15T07:00:00.315Z,96211.75
2022-11-15T07:02:46.950Z,96212.38
2022-11-15T07:05:33.998Z,96205.44
2022-11-15T07:08:20.334Z,96210.25
2022-11-15T07:11:09.233Z,96206.50
2022-11-15T07:13:55.932Z,96213.09
2022-11-15T07:16:44.189Z,96211.13
2022-11-15T07:19:30.372Z,96211.66
2022-11-15T07:22:17.065Z,96201.59
2022-11-15T07:25:03.596Z,96198.31
2022-11-15T07:27:56.719Z,96192.44
2022-11-15T07:30:45.404Z,96199.88
2022-11-15T07:33:34.063Z,96188.94
2022-11-15T07:36:20.713Z,96189.13
2022-11-15T07:39:07.316Z,96183.22
2022-11-15T07:42:14.441Z,96185.28
2022-11-15T07:45:01.043Z,96174.34
2022-11-15T07:47:47.870Z,96177.38
2022-11-15T07:50:35.649Z,96177.66
2022-11-15T07:53:22.246Z,96164.91
2022-11-15T07:56:09.339Z,96175.91
2022-11-15T07:58:55.898Z,96166.88
2022-11-15T08:01:42.607Z,96169.25
2022-11-15T08:04:29.480Z,96177.75
2022-11-15T08:07:17.844Z,96171.09
2022-11-15T08:10:05.021Z,96174.13
2022-11-15T08:12:59.503Z,96176.28
2022-11-15T08:15:45.863Z,96172.47
2022-11-15T08:18:32.470Z,96172.75
2022-11-15T08:21:21.778Z,96167.16
2022-11-15T08:24:11.934Z,96167.50
2022-11-15T08:26:58.687Z,96168.59
2022-11-15T08:29:45.315Z,96169.72
2022-11-15T08:32:32.756Z,96167.59
2022-11-15T08:35:21.695Z,96159.69
2022-11-15T08:38:10.157Z,96158.97
2022-11-15T08:41:03.154Z,96149.63
2022-11-15T08:43:49.780Z,96151.44
2022-11-15T08:46:36.399Z,96142.69
2022-11-15T08:49:23.314Z,96145.44
2022-11-15T08:52:09.667Z,96143.19
2022-11-15T08:54:56.256Z,96135.97
2022-11-15T08:57:44.167Z,96141.47
2022-11-15T09:00:30.446Z,96143.38
2022-11-15T09:03:17.349Z,96134.00
2022-11-15T09:06:03.798Z,96133.03
2022-11-15T09:08:50.285Z,96131.56
2022-11-15T09:11:36.583Z,96133.00
2022-11-15T09:14:24.324Z,96135.16
2022-11-15T09:17:11.317Z,96135.72
2022-11-15T09:19:57.998Z,96128.75
2022-11-15T09:22:44.678Z,96127.66
2022-11-15T09:25:31.368Z,96134.47
2022-11-15T09:28:17.753Z,96133.38
2022-11-15T09:31:07.659Z,96130.38
2022-11-15T09:33:54.625Z,96131.78
2022-11-15T09:36:40.834Z,96124.19
2022-11-15T09:39:27.597Z,96126.44
2022-11-15T09:42:32.842Z,96122.72
2022-11-15T09:45:24.674Z,96117.91
2022-11-15T09:48:36.513Z,96114.72
2022-11-15T09:51:32.249Z,96117.81
2022-11-15T09:54:45.522Z,96114.66
2022-11-15T09:56:55.410Z,96112.34
2022-11-15T09:59:37.257Z,96106.66
2022-11-15T10:02:26.026Z,96110.44
2022-11-15T10:04:56.069Z,96103.78
2022-11-15T10:07:29.271Z,96098.94
2022-11-15T10:10:04.297Z,96103.00
2022-11-15T10:12:33.323Z,96094.56
2022-11-15T10:15:05.337Z,96096.66
2022-11-15T10:17:58.354Z,96086.81
2022-11-15T10:20:30.122Z,96092.53
2022-11-15T10:23:02.476Z,96079.88
2022-11-15T10:25:32.864Z,96082.13
2022-11-15T10:28:08.655Z,96075.59
2022-11-15T10:30:38.326Z,96075.44
2022-11-15T10:33:19.460Z,96072.56
2022-11-15T10:35:48.970Z,96070.38
2022-11-15T10:38:16.897Z,96064.81
2022-11-15T10:40:45.925Z,96066.22
2022-11-15T10:43:19.796Z,96063.16
2022-11-15T10:45:49.759Z,96056.78
2022-11-15T10:48:25.682Z,96048.72
2022-11-15T10:50:56.990Z,96059.13
2022-11-15T10:53:39.367Z,96045.78
2022-11-15T10:56:10.431Z,96051.78
2022-11-15T10:58:42.025Z,96047.31
2022-11-15T11:01:19.036Z,96044.53
2022-11-15T11:04:00.053Z,96047.72
2022-11-15T11:06:30.031Z,96043.84
2022-11-15T11:08:59.933Z,96037.44
2022-11-15T11:11:47.192Z,96035.63
2022-11-15T11:14:26.792Z,96032.03
2022-11-15T11:16:57.608Z,96028.97
2022-11-15T11:19:39.428Z,96038.13
2022-11-15T11:22:18.733Z,96022.69
2022-11-15T11:24:55.587Z,96018.50
2022-11-15T11:27:37.537Z,96021.97
2022-11-15T11:30:11.355Z,96013.78
2022-11-15T11:32:55.181Z,96006.66
2022-11-15T11:35:30.278Z,96001.94
2022-11-15T11:38:11.365Z,95993.72
2022-11-15T11:40:45.741Z,95995.66
2022-11-15T11:43:23.688Z,95985.75
2022-11-15T11:46:07.347Z,95992.16
2022-11-15T11:48:43.962Z,95981.13
2022-11-15T11:51:19.050Z,95981.25
2022-11-15T11:53:55.856Z,95976.25
2022-11-15T11:56:30.836Z,95981.41
2022-11-15T11:59:04.388Z,95978.47
2022-11-15T12:01:37.959Z,95970.09
2022-11-15T12:04:13.146Z,95969.78
2022-11-15T12:06:47.781Z,95964.34
2022-11-15T12:09:23.871Z,95959.31
2022-11-15T12:12:00.362Z,95954.03
2022-11-15T12:14:34.704Z,95951.38
2022-11-15T12:17:02.838Z,95953.34
2022-11-15T12:19:31.833Z,95955.53
2022-11-15T12:22:05.237Z,95951.06
2022-11-15T12:24:40.908Z,95946.91
2022-11-15T12:27:23.364Z,95951.06
2022-11-15T12:29:58.888Z,95942.31
2022-11-15T12:32:30.777Z,95944.13
2022-11-15T12:35:00.092Z,95937.00
2022-11-15T12:37:52.555Z,95933.66
2022-11-15T12:40:34.249Z,95937.00
2022-11-15T12:43:05.388Z,95934.38
2022-11-15T12:45:35.614Z,95935.19
2022-11-15T12:48:51.073Z,95936.88
2022-11-15T12:51:21.715Z,95928.94
2022-11-15T12:53:49.715Z,95938.53
2022-11-15T12:56:25.541Z,95929.75
2022-11-15T12:58:56.756Z,95927.13
2022-11-15T13:02:01.222Z,95919.69
2022-11-15T13:04:31.185Z,95922.34
2022-11-15T13:07:01.902Z,95918.88
2022-11-15T13:09:53.379Z,95912.75
2022-11-15T13:12:59.890Z,95901.03
2022-11-15T13:15:47.830Z,95901.03
2022-11-15T13:18:36.069Z,95897.38
2022-11-15T13:21:28.217Z,95890.44
2022-11-15T13:23:57.413Z,95892.25
2022-11-15T13:26:25.545Z,95886.13
2022-11-15T13:28:56.936Z,95878.19
2022-11-15T13:31:38.523Z,95871.06
2022-11-15T13:34:49.929Z,95874.69
2022-11-15T13:37:29.643Z,95871.22
2022-11-15T13:40:19.717Z,95871.22
2022-11-15T13:42:47.624Z,95867.88
2022-11-15T13:45:19.136Z,95854.63
2022-11-15T13:47:52.765Z,95863.88
2022-11-15T13:50:24.446Z,95854.38
2022-11-15T13:52:53.594Z,95845.63
2022-11-15T13:55:24.019Z,95843.97
2022-11-15T13:57:55.654Z,95835.34
2022-11-15T14:00:34.546Z,95843.59
2022-11-15T14:03:10.482Z,95836.47
2022-11-15T14:05:39.460Z,95839.25
2022-11-15T14:08:24.795Z,95831.31
2022-11-15T14:11:09.799Z,95832.31
2022-11-15T14:13:38.041Z,95817.38
2022-11-15T14:16:18.854Z,95816.25
2022-11-15T14:18:49.363Z,95815.28
2022-11-15T14:21:17.799Z,95816.81
2022-11-15T14:23:46.625Z,95814.84
2022-11-15T14:26:30.260Z,95803.56
2022-11-15T14:28:58.882Z,95797.44
2022-11-15T14:31:28.215Z,95796.47
2022-11-15T14:33:56.277Z,95794.81
2022-11-15T14:36:24.307Z,95791.47
2022-11-15T14:38:52.289Z,95788.97
2022-11-15T14:41:23.001Z,95785.34
2022-11-15T14:43:51.141Z,95786.31
2022-11-15T14:46:19.710Z,95781.03
2022-11-15T14:48:49.121Z,95779.50
2022-11-15T14:51:19.918Z,95780.34
2022-11-15T14:53:48.794Z,95778.69
2022-11-15T14:56:17.728Z,95769.75
2022-11-15T14:58:45.846Z,95766.41
2022-11-15T15:01:18.559Z,95762.94
2022-11-15T15:03:48.087Z,95763.13
2022-11-15T15:06:18.257Z,95757.13
2022-11-15T15:08:47.000Z,95753.81
2022-11-15T15:11:25.247Z,95752.97
2022-11-15T15:13:54.126Z,95753.13
2022-11-15T15:16:22.725Z,95754.09
2022-11-15T15:18:52.522Z,95746.44
2022-11-15T15:21:23.158Z,95749.41
2022-11-15T15:23:51.276Z,95746.38
2022-11-15T15:26:19.728Z,95746.50
2022-11-15T15:28:49.529Z,95738.72
2022-11-15T15:31:18.022Z,95738.88
2022-11-15T15:33:46.133Z,95732.91
2022-11-15T15:36:18.898Z,95726.78
2022-11-15T15:38:47.835Z,95732.34
2022-11-15T15:41:17.382Z,95735.16
2022-11-15T15:43:45.645Z,95723.72
2022-11-15T15:46:16.051Z,95727.22
2022-11-15T15:48:44.368Z,95723.91
2022-11-15T15:51:19.638Z,95718.44
2022-11-15T15:53:51.689Z,95715.97
2022-11-15T15:56:19.681Z,95724.84
2022-11-15T15:58:47.659Z,95715.13
2022-11-15T16:01:15.578Z,95709.84
2022-11-15T16:03:43.585Z,95700.22
2022-11-15T16:06:37.512Z,95692.47
2022-11-15T16:09:15.772Z,95691.59
2022-11-15T16:11:46.437Z,95684.66
2022-11-15T16:14:14.587Z,95688.28
2022-11-15T16:16:42.557Z,95675.03
2022-11-15T16:19:12.433Z,95676.88
2022-11-15T16:21:40.379Z,95672.03
2022-11-15T16:24:09.614Z,95663.13
2022-11-15T16:26:38.924Z,95659.78
2022-11-15T16:29:07.982Z,95654.66
2022-11-15T16:31:36.015Z,95653.13
2022-11-15T16:34:04.058Z,95660.38
2022-11-15T16:36:35.005Z,95658.03
2022-11-15T16:39:05.279Z,95654.72
2022-11-15T16:41:34.942Z,95648.75
2022-11-15T16:44:02.981Z,95646.25
2022-11-15T16:46:32.278Z,95647.91
2022-11-15T16:49:00.270Z,95640.97
2022-11-15T16:51:28.306Z,95651.44
2022-11-15T16:53:56.239Z,95647.97
2022-11-15T16:56:26.753Z,95644.50
2022-11-15T16:58:58.657Z,95642.13
2022-11-15T17:01:29.026Z,95641.44
2022-11-15T17:03:57.583Z,95636.59
2022-11-15T17:06:27.309Z,95638.41
2022-11-15T17:08:56.622Z,95636.09
2022-11-15T17:11:24.655Z,95635.78
2022-11-15T17:13:53.118Z,95631.31
2022-11-15T17:16:22.475Z,95633.00
2022-11-15T17:18:52.478Z,95632.19
2022-11-15T17:21:22.568Z,95626.03
2022-11-15T17:23:50.663Z,95633.97
2022-11-15T17:26:29.565Z,95629.66
2022-11-15T17:29:00.903Z,95623.56
2022-11-15T17:31:33.773Z,95622.72
2022-11-15T17:34:02.359Z,95616.59
2022-11-15T17:36:30.507Z,95616.75
2022-11-15T17:39:00.025Z,95615.25
2022-11-15T17:41:28.909Z,95609.97
2022-11-15T17:43:59.226Z,95612.44
2022-11-15T17:46:28.180Z,95616.75
2022-11-15T17:48:58.615Z,95612.75
2022-11-15T17:51:26.941Z,95612.75
2022-11-15T17:53:56.535Z,95610.22
2022-11-15T17:56:26.606Z,95611.38
2022-11-15T17:58:56.078Z,95611.38
2022-11-15T18:01:25.696Z,95604.44
2022-11-15T18:03:54.622Z,95610.69
2022-11-15T18:06:25.258Z,95613.31
2022-11-15T18:08:55.978Z,95603.75
2022-11-15T18:11:25.720Z,95601.09
2022-11-15T18:13:56.757Z,95595.81
2022-11-15T18:16:27.235Z,95594.44
2022-11-15T18:18:56.101Z,95594.44
2022-11-15T18:21:27.361Z,95590.84
2022-11-15T18:23:57.173Z,95601.53
2022-11-15T18:26:27.851Z,95599.88
2022-11-15T18:28:57.670Z,95604.19
2022-11-15T18:31:28.764Z,95611.13
2022-11-15T18:33:57.381Z,95604.31
2022-11-15T18:36:28.152Z,95601.84
2022-11-15T18:38:56.806Z,95602.53
2022-11-15T18:41:28.321Z,95598.34
2022-11-15T18:43:56.759Z,95600.03
2022-11-15T18:46:26.327Z,95587.63
2022-11-15T18:48:55.590Z,95587.78
2022-11-15T18:51:25.512Z,95584.44
2022-11-15T18:53:56.100Z,95582.75
2022-11-15T18:56:25.664Z,95576.09
2022-11-15T18:58:55.675Z,95567.75
2022-11-15T19:01:25.813Z,95578.88
2022-11-15T19:03:55.259Z,95563.03
2022-11-15T19:06:25.062Z,95556.75
2022-11-15T19:08:56.394Z,95553.28
2022-11-15T19:11:28.744Z,95555.09
2022-11-15T19:13:59.607Z,95547.19
2022-11-15T19:16:29.172Z,95541.91
2022-11-15T19:18:58.470Z,95541.22
2022-11-15T19:21:27.460Z,95542.16
2022-11-15T19:23:56.762Z,95546.78
2022-11-15T19:26:25.623Z,95538.66
2022-11-15T19:28:55.505Z,95528.28
2022-11-15T19:31:25.194Z,95531.88
2022-11-15T19:33:54.490Z,95519.66
2022-11-15T19:36:24.138Z,95521.31
2022-11-15T19:38:52.135Z,95513.38
2022-11-15T19:41:23.316Z,95503.81
2022-11-15T19:43:52.337Z,95512.88
2022-11-15T19:46:23.501Z,95513.00
2022-11-15T19:48:52.287Z,95512.19
2022-11-15T19:51:22.608Z,95519.41
2022-11-15T19:53:51.361Z,95514.44
2022-11-15T19:56:24.746Z,95506.78
2022-11-15T19:58:56.020Z,95514.88
2022-11-15T20:01:26.037Z,95513.38
2022-11-15T20:03:55.881Z,95519.09
2022-11-15T20:06:25.541Z,95516.72
2022-11-15T20:08:53.811Z,95518.41
2022-11-15T20:11:23.556Z,95510.78
2022-11-15T20:13:51.855Z,95509.94
2022-11-15T20:16:21.853Z,95509.41
2022-11-15T20:18:51.346Z,95512.75
2022-11-15T20:21:20.685Z,95510.09
2022-11-15T20:23:51.649Z,95515.81
2022-11-15T20:26:20.485Z,95510.53
2022-11-15T20:28:50.152Z,95505.53
2022-11-15T20:31:18.468Z,95504.56
2022-11-15T20:33:46.658Z,95501.13
2022-11-15T20:36:18.000Z,95500.66
2022-11-15T20:38:48.890Z,95494.00
2022-11-15T20:41:17.570Z,95489.00
2022-11-15T20:43:45.815Z,95487.22
2022-11-15T20:46:15.608Z,95480.25
2022-11-15T20:48:47.999Z,95482.53
2022-11-15T20:51:24.133Z,95475.28
2022-11-15T20:53:52.804Z,95468.19
2022-11-15T20:56:28.453Z,95466.00
2022-11-15T20:58:56.568Z,95471.13
2022-11-15T21:01:29.213Z,95456.41
2022-11-15T21:03:58.067Z,95460.56
2022-11-15T21:06:30.117Z,95457.13
2022-11-15T21:09:15.804Z,95441.53
2022-11-15T21:12:01.745Z,95445.03
2022-11-15T21:14:30.010Z,95440.19
2022-11-15T21:16:59.484Z,95437.69
2022-11-15T21:19:32.587Z,95437.84
2022-11-15T21:22:02.868Z,95440.78
2022-11-15T21:24:31.098Z,95434.69
2022-11-15T21:26:59.268Z,95429.41
2022-11-15T21:29:28.538Z,95420.50
2022-11-15T21:31:56.590Z,95420.34
2022-11-15T21:34:25.840Z,95416.03
2022-11-15T21:36:54.068Z,95419.34
2022-11-15T21:39:22.214Z,95432.28
2022-11-15T21:41:50.122Z,95434.22
2022-11-15T21:44:18.144Z,95443.81
2022-11-15T21:46:46.041Z,95447.56
2022-11-15T21:49:14.070Z,95444.94
2022-11-15T21:51:43.615Z,95434.50
2022-11-15T21:54:11.880Z,95437.16
2022-11-15T21:56:39.877Z,95433.56
2022-11-15T21:59:07.753Z,95429.41
2022-11-15T22:01:53.486Z,95427.88
2022-11-15T22:04:23.904Z,95421.91
2022-11-15T22:06:53.352Z,95420.25
2022-11-15T22:09:21.253Z,95419.41
2022-11-15T22:11:49.259Z,95409.03
2022-11-15T22:14:17.589Z,95400.13
2022-11-15T22:16:45.627Z,95404.56
2022-11-15T22:19:13.705Z,95403.88
2022-11-15T22:21:41.844Z,95402.38
2022-11-15T22:24:11.214Z,95406.97
2022-11-15T22:26:39.275Z,95406.97
2022-11-15T22:29:07.288Z,95411.56
2022-11-15T22:31:35.309Z,95402.00
2022-11-15T22:34:03.368Z,95414.06
2022-11-15T22:36:46.918Z,95405.47
2022-11-15T22:39:16.647Z,95410.19
2022-11-15T22:41:44.624Z,95397.00
2022-11-15T22:44:12.656Z,95404.22
2022-11-15T22:46:40.562Z,95399.78
2022-11-15T22:49:09.227Z,95405.22
2022-11-15T22:51:38.953Z,95406.47
2022-11-15T22:54:07.653Z,95412.75
2022-11-15T22:56:37.106Z,95412.75
2022-11-15T22:59:05.158Z,95407.47
2022-11-15T23:01:33.293Z,95406.91
2022-11-15T23:04:01.421Z,95406.09
2022-11-15T23:06:29.485Z,95397.34
2022-11-15T23:08:57.516Z,95404.44
2022-11-15T23:11:43.269Z,95404.72
2022-11-15T23:14:12.671Z,95404.03
2022-11-15T23:16:43.634Z,95405.56
2022-11-15T23:19:15.935Z,95403.06
2022-11-15T23:22:08.577Z,95400.41
2022-11-15T23:24:36.559Z,95390.56
2022-11-15T23:27:07.219Z,95380.97
2022-11-15T23:29:58.374Z,95383.09
2022-11-15T23:32:43.730Z,95379.44
2022-11-15T23:35:11.918Z,95381.97
2022-11-15T23:37:39.867Z,95377.63
2022-11-15T23:40:09.467Z,95373.34
2022-11-15T23:42:37.455Z,95376.97
2022-11-15T23:45:08.285Z,95393.75
2022-11-15T23:47:36.403Z,95376.00
2022-11-15T23:50:05.543Z,95379.06
2022-11-15T23:52:33.666Z,95384.03
2022-11-15T23:55:01.659Z,95391.13
2022-11-15T23:57:29.799Z,95392.13
